首页
METAR-TAF:

METAR-TAF

机场 :

Lydd, 英格兰

纬度: 50-57N, 经度: 000-56E, 海拔: 3米

当前天气观测

该预报发布于37分钟前的18:50 UTC
风速23节,风向西南
温度 10°C
湿度 87%
气压 1024 hPa
能见度10公里或以上

METAR: EGMD 211850Z AUTO 23023KT 9999 SCT020/// OVC032/// 10/08 Q1024

时间: 19:27 (19:27 UTC)

预报

该预报发布于2小时和19分钟前的17:08 UTC
预报有效从21日的 18点(UTC)到 22日的 03点(UTC)
风速25节,风向西转西南
能见度10公里或以上
多云层高于2000英尺
短暂存在
从 21日的 18点(UTC)到 22日的 03点(UTC)
风速27节,风向西转西南,有时为40节阵风
几率 40% :
短暂存在
从 21日的 18点(UTC)到 21日的 24点(UTC)
能見度: 8000
多云层高于1200英尺
小雨
成为
从 22日的 00点(UTC)到 22日的 03点(UTC)
能見度: 8000
多云层高于1200英尺
小雨
几率 30% :
短暂存在
从 22日的 00点(UTC)到 22日的 03点(UTC)
多云层高于800英尺

TAF: EGMD 211708Z 2118/2203 24025KT 9999 BKN020 TEMPO 2118/2203 24027G40KT PROB40 TEMPO 2118/2124 8000 -RA BKN012 BECMG 2200/2203 8000 -RA BKN012 PROB30 TEMPO 2200/2203 BKN008

超过4000个机场的气象观测和天气预报(METAR&TAF报告)。

可查询的气象台以黄色和红色小点在地图上表示。

将鼠标移到小点上方,可查看气象台名称。

然后点击查看天气观测和预报。

如需切换地图:点击带黑十字的绿色按钮放大地图;点击带横线的绿色按钮缩小地图;或者点击绿色箭头查看邻近地区的地图。


METAR-TAF: